sensor_id;sensor_type;location;lat;lon;timestamp;pressure;altitude;pressure_sealevel;temperature;humidity
76358;BME280;65185;21.060;105.826;2023-09-07T00:01:01;100762.47;;;29.12;99.44
76358;BME280;65185;21.060;105.826;2023-09-07T00:03:30;100767.66;;;29.13;99.90
76358;BME280;65185;21.060;105.826;2023-09-07T00:05:56;100773.50;;;29.18;99.53
76358;BME280;65185;21.060;105.826;2023-09-07T00:08:22;100779.44;;;29.22;99.61
76358;BME280;65185;21.060;105.826;2023-09-07T00:10:51;100787.91;;;29.27;100.00
76358;BME280;65185;21.060;105.826;2023-09-07T00:13:17;100792.28;;;29.28;99.65
76358;BME280;65185;21.060;105.826;2023-09-07T00:15:44;100782.44;;;29.28;99.44
76358;BME280;65185;21.060;105.826;2023-09-07T00:18:10;100793.72;;;29.32;99.59
76358;BME280;65185;21.060;105.826;2023-09-07T00:20:37;100793.59;;;29.33;99.27
76358;BME280;65185;21.060;105.826;2023-09-07T00:23:04;100798.94;;;29.33;99.21
76358;BME280;65185;21.060;105.826;2023-09-07T00:25:30;100805.25;;;29.32;98.26
76358;BME280;65185;21.060;105.826;2023-09-07T00:27:57;100801.72;;;29.32;97.73
76358;BME280;65185;21.060;105.826;2023-09-07T00:30:23;100800.50;;;29.36;97.41
76358;BME280;65185;21.060;105.826;2023-09-07T00:32:49;100806.31;;;29.41;97.64
76358;BME280;65185;21.060;105.826;2023-09-07T00:35:16;100806.81;;;29.46;97.31
76358;BME280;65185;21.060;105.826;2023-09-07T00:37:42;100811.03;;;29.48;96.54
76358;BME280;65185;21.060;105.826;2023-09-07T00:40:09;100819.53;;;29.54;96.34
76358;BME280;65185;21.060;105.826;2023-09-07T00:42:36;100818.44;;;29.56;95.66
76358;BME280;65185;21.060;105.826;2023-09-07T00:45:03;100820.88;;;29.59;95.29
76358;BME280;65185;21.060;105.826;2023-09-07T00:47:30;100822.41;;;29.62;95.00
76358;BME280;65185;21.060;105.826;2023-09-07T00:49:59;100831.88;;;29.66;95.27
76358;BME280;65185;21.060;105.826;2023-09-07T00:52:27;100827.41;;;29.66;94.81
76358;BME280;65185;21.060;105.826;2023-09-07T00:54:53;100836.13;;;29.68;94.29
76358;BME280;65185;21.060;105.826;2023-09-07T00:57:20;100835.91;;;29.71;94.23
76358;BME280;65185;21.060;105.826;2023-09-07T00:59:47;100837.34;;;29.75;94.45
76358;BME280;65185;21.060;105.826;2023-09-07T01:02:13;100832.59;;;29.79;94.26
76358;BME280;65185;21.060;105.826;2023-09-07T01:04:40;100834.06;;;29.83;93.65
76358;BME280;65185;21.060;105.826;2023-09-07T01:07:18;100823.22;;;29.84;94.09
76358;BME280;65185;21.060;105.826;2023-09-07T01:09:51;100826.22;;;29.91;93.55
76358;BME280;65185;21.060;105.826;2023-09-07T01:12:18;100826.09;;;29.92;93.59
76358;BME280;65185;21.060;105.826;2023-09-07T01:14:45;100838.22;;;29.96;93.30
76358;BME280;65185;21.060;105.826;2023-09-07T01:17:12;100837.28;;;29.97;92.77
76358;BME280;65185;21.060;105.826;2023-09-07T01:19:40;100841.38;;;30.01;92.56
76358;BME280;65185;21.060;105.826;2023-09-07T01:22:09;100842.09;;;30.03;93.19
76358;BME280;65185;21.060;105.826;2023-09-07T01:24:38;100839.19;;;30.06;92.59
76358;BME280;65185;21.060;105.826;2023-09-07T01:27:05;100837.94;;;30.10;92.79
76358;BME280;65185;21.060;105.826;2023-09-07T01:29:32;100846.41;;;30.15;91.89
76358;BME280;65185;21.060;105.826;2023-09-07T01:31:59;100856.13;;;30.16;91.61
76358;BME280;65185;21.060;105.826;2023-09-07T01:34:26;100854.88;;;30.20;91.26
76358;BME280;65185;21.060;105.826;2023-09-07T01:36:52;100847.59;;;30.22;91.39
76358;BME280;65185;21.060;105.826;2023-09-07T01:39:18;100844.66;;;30.25;92.01
76358;BME280;65185;21.060;105.826;2023-09-07T01:41:45;100843.59;;;30.28;92.23
76358;BME280;65185;21.060;105.826;2023-09-07T01:44:11;100847.94;;;30.29;92.70
76358;BME280;65185;21.060;105.826;2023-09-07T01:46:38;100848.81;;;30.29;92.09
76358;BME280;65185;21.060;105.826;2023-09-07T01:49:04;100849.53;;;30.31;92.09
76358;BME280;65185;21.060;105.826;2023-09-07T01:51:31;100844.91;;;30.33;92.17
76358;BME280;65185;21.060;105.826;2023-09-07T01:53:57;100849.25;;;30.34;92.18
76358;BME280;65185;21.060;105.826;2023-09-07T01:56:24;100841.13;;;30.36;92.22
76358;BME280;65185;21.060;105.826;2023-09-07T01:58:50;100854.81;;;30.42;91.57
76358;BME280;65185;21.060;105.826;2023-09-07T02:01:25;100849.81;;;30.49;91.89
76358;BME280;65185;21.060;105.826;2023-09-07T02:03:52;100860.09;;;30.54;91.62
76358;BME280;65185;21.060;105.826;2023-09-07T02:06:18;100850.69;;;30.59;91.87
76358;BME280;65185;21.060;105.826;2023-09-07T02:08:45;100859.06;;;30.66;91.65
76358;BME280;65185;21.060;105.826;2023-09-07T02:11:12;100849.50;;;30.73;91.63
76358;BME280;65185;21.060;105.826;2023-09-07T02:13:41;100841.66;;;30.81;91.28
76358;BME280;65185;21.060;105.826;2023-09-07T02:16:09;100842.97;;;30.86;91.07
76358;BME280;65185;21.060;105.826;2023-09-07T02:18:36;100831.88;;;30.91;90.53
76358;BME280;65185;21.060;105.826;2023-09-07T02:21:05;100844.28;;;30.92;89.88
76358;BME280;65185;21.060;105.826;2023-09-07T02:23:32;100846.94;;;30.92;89.86
76358;BME280;65185;21.060;105.826;2023-09-07T02:25:59;100844.84;;;30.95;89.84
76358;BME280;65185;21.060;105.826;2023-09-07T02:28:26;100840.50;;;30.94;89.33
76358;BME280;65185;21.060;105.826;2023-09-07T02:30:52;100836.56;;;30.98;89.45
76358;BME280;65185;21.060;105.826;2023-09-07T02:33:19;100840.41;;;31.05;89.42
76358;BME280;65185;21.060;105.826;2023-09-07T02:35:47;100845.63;;;31.07;88.74
76358;BME280;65185;21.060;105.826;2023-09-07T02:38:15;100836.19;;;31.12;88.34
76358;BME280;65185;21.060;105.826;2023-09-07T02:40:42;100842.97;;;31.16;87.95
76358;BME280;65185;21.060;105.826;2023-09-07T02:43:10;100834.53;;;31.21;87.38
76358;BME280;65185;21.060;105.826;2023-09-07T02:45:37;100829.50;;;31.27;86.51
76358;BME280;65185;21.060;105.826;2023-09-07T02:48:05;100821.88;;;31.32;86.70
76358;BME280;65185;21.060;105.826;2023-09-07T02:50:34;100822.09;;;31.41;86.82
76358;BME280;65185;21.060;105.826;2023-09-07T02:53:01;100823.94;;;31.50;87.08
76358;BME280;65185;21.060;105.826;2023-09-07T02:55:28;100813.09;;;31.61;87.16
76358;BME280;65185;21.060;105.826;2023-09-07T02:57:56;100818.03;;;31.65;86.13
76358;BME280;65185;21.060;105.826;2023-09-07T03:00:28;100815.66;;;31.72;86.47
76358;BME280;65185;21.060;105.826;2023-09-07T03:02:55;100811.84;;;31.84;86.64
76358;BME280;65185;21.060;105.826;2023-09-07T03:05:22;100816.69;;;31.90;85.88
76358;BME280;65185;21.060;105.826;2023-09-07T03:07:49;100809.59;;;31.98;85.84
76358;BME280;65185;21.060;105.826;2023-09-07T03:10:15;100805.41;;;32.05;85.35
76358;BME280;65185;21.060;105.826;2023-09-07T03:12:42;100811.88;;;32.12;84.96
76358;BME280;65185;21.060;105.826;2023-09-07T03:15:09;100813.00;;;32.19;85.54
76358;BME280;65185;21.060;105.826;2023-09-07T03:17:35;100808.75;;;32.26;84.66
76358;BME280;65185;21.060;105.826;2023-09-07T03:20:02;100806.59;;;32.40;84.35
76358;BME280;65185;21.060;105.826;2023-09-07T03:22:45;100799.13;;;32.53;84.71
76358;BME280;65185;21.060;105.826;2023-09-07T03:25:13;100804.69;;;32.78;83.51
76358;BME280;65185;21.060;105.826;2023-09-07T03:27:39;100788.09;;;33.02;81.70
76358;BME280;65185;21.060;105.826;2023-09-07T03:30:07;100793.97;;;33.33;80.28
76358;BME280;65185;21.060;105.826;2023-09-07T03:32:33;100791.06;;;33.71;78.66
76358;BME280;65185;21.060;105.826;2023-09-07T03:35:02;100787.66;;;34.21;77.39
76358;BME280;65185;21.060;105.826;2023-09-07T03:37:29;100781.38;;;34.90;75.28
76358;BME280;65185;21.060;105.826;2023-09-07T03:39:56;100776.25;;;35.54;71.64
76358;BME280;65185;21.060;105.826;2023-09-07T03:42:22;100791.97;;;35.91;70.13
76358;BME280;65185;21.060;105.826;2023-09-07T03:44:49;100788.44;;;35.98;69.46
76358;BME280;65185;21.060;105.826;2023-09-07T03:47:15;100786.22;;;36.18;67.61
76358;BME280;65185;21.060;105.826;2023-09-07T03:49:42;100780.78;;;36.58;65.99
76358;BME280;65185;21.060;105.826;2023-09-07T03:52:09;100772.81;;;36.73;64.31
76358;BME280;65185;21.060;105.826;2023-09-07T03:54:35;100784.53;;;36.33;64.80
76358;BME280;65185;21.060;105.826;2023-09-07T03:57:02;100777.28;;;36.42;64.58
76358;BME280;65185;21.060;105.826;2023-09-07T03:59:29;100776.97;;;36.13;65.65
76358;BME280;65185;21.060;105.826;2023-09-07T04:01:56;100774.09;;;36.46;63.58
76358;BME280;65185;21.060;105.826;2023-09-07T04:04:22;100765.91;;;36.70;62.64
76358;BME280;65185;21.060;105.826;2023-09-07T04:06:49;100758.56;;;36.95;62.07
76358;BME280;65185;21.060;105.826;2023-09-07T04:09:15;100762.84;;;37.20;61.75
76358;BME280;65185;21.060;105.826;2023-09-07T04:11:41;100752.34;;;37.25;60.95
76358;BME280;65185;21.060;105.826;2023-09-07T04:14:08;100750.44;;;37.34;60.89
76358;BME280;65185;21.060;105.826;2023-09-07T04:16:34;100751.22;;;37.42;61.55
76358;BME280;65185;21.060;105.826;2023-09-07T04:19:01;100738.63;;;37.57;60.93
76358;BME280;65185;21.060;105.826;2023-09-07T04:21:28;100743.69;;;37.38;61.34
76358;BME280;65185;21.060;105.826;2023-09-07T04:23:54;100732.78;;;37.15;61.66
76358;BME280;65185;21.060;105.826;2023-09-07T04:26:21;100729.72;;;36.41;63.55
76358;BME280;65185;21.060;105.826;2023-09-07T04:28:47;100730.41;;;36.10;64.34
76358;BME280;65185;21.060;105.826;2023-09-07T04:31:14;100724.00;;;35.55;66.08
76358;BME280;65185;21.060;105.826;2023-09-07T04:33:40;100720.56;;;35.21;67.10
76358;BME280;65185;21.060;105.826;2023-09-07T04:36:14;100719.63;;;34.96;68.62
76358;BME280;65185;21.060;105.826;2023-09-07T04:38:41;100715.16;;;34.79;69.27
76358;BME280;65185;21.060;105.826;2023-09-07T04:41:12;100706.16;;;34.55;70.79
76358;BME280;65185;21.060;105.826;2023-09-07T04:43:40;100711.97;;;34.42;70.45
76358;BME280;65185;21.060;105.826;2023-09-07T04:46:11;100710.22;;;34.33;71.29
76358;BME280;65185;21.060;105.826;2023-09-07T04:48:38;100703.06;;;34.16;72.50
76358;BME280;65185;21.060;105.826;2023-09-07T04:51:08;100696.94;;;34.06;72.43
76358;BME280;65185;21.060;105.826;2023-09-07T04:53:36;100692.19;;;34.00;73.46
76358;BME280;65185;21.060;105.826;2023-09-07T04:56:04;100700.78;;;33.86;73.92
76358;BME280;65185;21.060;105.826;2023-09-07T04:58:31;100689.75;;;33.71;75.23
76358;BME280;65185;21.060;105.826;2023-09-07T05:01:16;100687.09;;;33.54;75.97
76358;BME280;65185;21.060;105.826;2023-09-07T05:03:42;100688.94;;;33.53;75.88
76358;BME280;65185;21.060;105.826;2023-09-07T05:06:08;100674.03;;;33.59;74.77
76358;BME280;65185;21.060;105.826;2023-09-07T05:08:35;100668.03;;;33.65;75.05
76358;BME280;65185;21.060;105.826;2023-09-07T05:11:02;100657.03;;;33.76;75.79
76358;BME280;65185;21.060;105.826;2023-09-07T05:13:29;100662.94;;;33.79;75.46
76358;BME280;65185;21.060;105.826;2023-09-07T05:15:57;100657.56;;;33.79;75.64
76358;BME280;65185;21.060;105.826;2023-09-07T05:18:24;100650.13;;;33.73;75.31
76358;BME280;65185;21.060;105.826;2023-09-07T05:20:51;100652.44;;;33.68;76.00
76358;BME280;65185;21.060;105.826;2023-09-07T05:23:22;100633.97;;;33.65;75.97
76358;BME280;65185;21.060;105.826;2023-09-07T05:25:52;100631.19;;;33.57;76.19
76358;BME280;65185;21.060;105.826;2023-09-07T05:28:20;100625.19;;;33.63;76.20
76358;BME280;65185;21.060;105.826;2023-09-07T05:30:47;100614.81;;;33.68;76.18
76358;BME280;65185;21.060;105.826;2023-09-07T05:33:15;100618.34;;;33.69;75.64
76358;BME280;65185;21.060;105.826;2023-09-07T05:35:42;100610.97;;;33.71;75.76
76358;BME280;65185;21.060;105.826;2023-09-07T05:38:10;100615.66;;;33.69;76.64
76358;BME280;65185;21.060;105.826;2023-09-07T05:40:38;100601.22;;;33.70;75.19
76358;BME280;65185;21.060;105.826;2023-09-07T05:43:05;100597.13;;;33.58;73.44
76358;BME280;65185;21.060;105.826;2023-09-07T05:45:38;100596.25;;;33.57;73.65
76358;BME280;65185;21.060;105.826;2023-09-07T05:48:06;100589.19;;;33.56;74.09
76358;BME280;65185;21.060;105.826;2023-09-07T05:50:35;100578.75;;;33.53;74.47
76358;BME280;65185;21.060;105.826;2023-09-07T05:53:02;100576.63;;;33.39;75.28
76358;BME280;65185;21.060;105.826;2023-09-07T05:55:57;100572.19;;;33.30;75.02
76358;BME280;65185;21.060;105.826;2023-09-07T05:58:24;100566.72;;;33.40;75.02
76358;BME280;65185;21.060;105.826;2023-09-07T06:00:50;100564.28;;;33.46;73.75
76358;BME280;65185;21.060;105.826;2023-09-07T06:03:17;100566.69;;;33.57;73.48
76358;BME280;65185;21.060;105.826;2023-09-07T06:05:43;100553.59;;;33.54;73.46
76358;BME280;65185;21.060;105.826;2023-09-07T06:08:10;100552.81;;;33.44;72.52
76358;BME280;65185;21.060;105.826;2023-09-07T06:10:37;100554.91;;;33.50;72.55
76358;BME280;65185;21.060;105.826;2023-09-07T06:13:04;100548.06;;;33.38;72.86
76358;BME280;65185;21.060;105.826;2023-09-07T06:15:30;100543.84;;;33.36;72.33
76358;BME280;65185;21.060;105.826;2023-09-07T06:17:57;100532.25;;;33.35;72.66
76358;BME280;65185;21.060;105.826;2023-09-07T06:20:23;100533.47;;;33.41;73.39
76358;BME280;65185;21.060;105.826;2023-09-07T06:22:50;100530.63;;;33.42;73.14
76358;BME280;65185;21.060;105.826;2023-09-07T06:25:16;100523.25;;;33.44;72.89
76358;BME280;65185;21.060;105.826;2023-09-07T06:27:43;100517.88;;;33.44;72.94
76358;BME280;65185;21.060;105.826;2023-09-07T06:30:09;100513.91;;;33.48;73.66
76358;BME280;65185;21.060;105.826;2023-09-07T06:32:36;100516.03;;;33.45;74.02
76358;BME280;65185;21.060;105.826;2023-09-07T06:35:02;100508.59;;;33.39;73.68
76358;BME280;65185;21.060;105.826;2023-09-07T06:37:29;100502.47;;;33.46;72.90
76358;BME280;65185;21.060;105.826;2023-09-07T06:39:56;100513.59;;;33.51;72.19
76358;BME280;65185;21.060;105.826;2023-09-07T06:42:22;100502.91;;;33.59;71.53
76358;BME280;65185;21.060;105.826;2023-09-07T06:44:49;100496.38;;;33.44;71.83
76358;BME280;65185;21.060;105.826;2023-09-07T06:47:16;100492.41;;;33.48;71.21
76358;BME280;65185;21.060;105.826;2023-09-07T06:49:42;100483.66;;;33.46;70.47
76358;BME280;65185;21.060;105.826;2023-09-07T06:52:09;100477.81;;;33.51;71.01
76358;BME280;65185;21.060;105.826;2023-09-07T06:54:36;100480.38;;;33.60;71.49
76358;BME280;65185;21.060;105.826;2023-09-07T06:57:02;100471.00;;;33.64;69.14
76358;BME280;65185;21.060;105.826;2023-09-07T06:59:32;100463.44;;;33.60;70.23
76358;BME280;65185;21.060;105.826;2023-09-07T07:01:59;100462.94;;;33.64;71.03
76358;BME280;65185;21.060;105.826;2023-09-07T07:04:27;100460.94;;;33.66;71.14
76358;BME280;65185;21.060;105.826;2023-09-07T07:06:54;100459.78;;;33.69;71.66
76358;BME280;65185;21.060;105.826;2023-09-07T07:09:20;100456.56;;;33.65;72.33
76358;BME280;65185;21.060;105.826;2023-09-07T07:11:47;100449.50;;;33.64;72.30
76358;BME280;65185;21.060;105.826;2023-09-07T07:14:15;100450.00;;;33.68;71.95
76358;BME280;65185;21.060;105.826;2023-09-07T07:16:42;100438.41;;;33.67;72.68
76358;BME280;65185;21.060;105.826;2023-09-07T07:19:08;100435.44;;;33.70;72.02
76358;BME280;65185;21.060;105.826;2023-09-07T07:21:36;100427.16;;;33.64;72.04
76358;BME280;65185;21.060;105.826;2023-09-07T07:24:03;100417.59;;;33.61;71.24
76358;BME280;65185;21.060;105.826;2023-09-07T07:26:32;100414.06;;;33.61;70.74
76358;BME280;65185;21.060;105.826;2023-09-07T07:28:59;100414.09;;;33.69;72.36
76358;BME280;65185;21.060;105.826;2023-09-07T07:31:26;100401.16;;;33.72;73.05
76358;BME280;65185;21.060;105.826;2023-09-07T07:33:53;100399.81;;;33.68;72.55
76358;BME280;65185;21.060;105.826;2023-09-07T07:36:20;100391.75;;;33.68;71.33
76358;BME280;65185;21.060;105.826;2023-09-07T07:38:47;100393.28;;;33.71;71.08
76358;BME280;65185;21.060;105.826;2023-09-07T07:41:14;100389.75;;;33.70;71.18
76358;BME280;65185;21.060;105.826;2023-09-07T07:43:41;100385.03;;;33.72;71.62
76358;BME280;65185;21.060;105.826;2023-09-07T07:46:08;100377.97;;;33.63;71.56
76358;BME280;65185;21.060;105.826;2023-09-07T07:48:35;100371.69;;;33.55;71.67
76358;BME280;65185;21.060;105.826;2023-09-07T07:51:05;100364.31;;;33.57;69.59
76358;BME280;65185;21.060;105.826;2023-09-07T07:53:31;100368.88;;;33.64;69.34
76358;BME280;65185;21.060;105.826;2023-09-07T07:55:58;100368.72;;;33.66;69.78
76358;BME280;65185;21.060;105.826;2023-09-07T07:58:25;100369.56;;;33.66;70.79
76358;BME280;65185;21.060;105.826;2023-09-07T08:00:52;100371.22;;;33.59;71.41
76358;BME280;65185;21.060;105.826;2023-09-07T08:03:19;100373.91;;;33.59;71.99
76358;BME280;65185;21.060;105.826;2023-09-07T08:05:47;100366.69;;;33.68;69.39
76358;BME280;65185;21.060;105.826;2023-09-07T08:08:14;100368.06;;;33.72;68.76
76358;BME280;65185;21.060;105.826;2023-09-07T08:10:40;100360.00;;;33.72;68.70
76358;BME280;65185;21.060;105.826;2023-09-07T08:13:07;100358.16;;;33.72;68.91
76358;BME280;65185;21.060;105.826;2023-09-07T08:15:34;100358.31;;;33.63;69.10
76358;BME280;65185;21.060;105.826;2023-09-07T08:18:01;100361.47;;;33.58;69.08
76358;BME280;65185;21.060;105.826;2023-09-07T08:20:32;100356.94;;;33.59;69.20
76358;BME280;65185;21.060;105.826;2023-09-07T08:22:59;100352.88;;;33.55;68.02
76358;BME280;65185;21.060;105.826;2023-09-07T08:25:29;100357.44;;;33.54;67.99
76358;BME280;65185;21.060;105.826;2023-09-07T08:27:56;100343.00;;;33.55;66.55
76358;BME280;65185;21.060;105.826;2023-09-07T08:30:25;100351.72;;;33.57;67.36
76358;BME280;65185;21.060;105.826;2023-09-07T08:32:52;100341.16;;;33.56;67.71
76358;BME280;65185;21.060;105.826;2023-09-07T08:35:19;100329.56;;;33.55;68.21
76358;BME280;65185;21.060;105.826;2023-09-07T08:37:45;100333.91;;;33.56;67.22
76358;BME280;65185;21.060;105.826;2023-09-07T08:40:16;100328.19;;;33.51;66.59
76358;BME280;65185;21.060;105.826;2023-09-07T08:42:43;100327.97;;;33.45;67.09
76358;BME280;65185;21.060;105.826;2023-09-07T08:45:13;100327.97;;;33.45;67.14
76358;BME280;65185;21.060;105.826;2023-09-07T08:47:41;100319.19;;;33.35;67.52
76358;BME280;65185;21.060;105.826;2023-09-07T08:50:10;100322.19;;;33.23;68.40
76358;BME280;65185;21.060;105.826;2023-09-07T08:52:38;100320.50;;;33.22;67.98
76358;BME280;65185;21.060;105.826;2023-09-07T08:55:05;100317.50;;;33.25;68.67
76358;BME280;65185;21.060;105.826;2023-09-07T08:57:32;100312.28;;;33.24;69.70
76358;BME280;65185;21.060;105.826;2023-09-07T08:59:59;100316.78;;;33.15;70.08
76358;BME280;65185;21.060;105.826;2023-09-07T09:02:25;100317.31;;;33.19;69.51
76358;BME280;65185;21.060;105.826;2023-09-07T09:04:52;100311.59;;;33.22;68.39
76358;BME280;65185;21.060;105.826;2023-09-07T09:07:19;100315.66;;;33.26;69.81
76358;BME280;65185;21.060;105.826;2023-09-07T09:09:46;100313.47;;;33.29;69.28
76358;BME280;65185;21.060;105.826;2023-09-07T09:12:13;100309.94;;;33.29;69.82
76358;BME280;65185;21.060;105.826;2023-09-07T09:14:44;100304.56;;;33.29;69.56
76358;BME280;65185;21.060;105.826;2023-09-07T09:17:15;100307.94;;;33.31;68.87
76358;BME280;65185;21.060;105.826;2023-09-07T09:19:41;100307.75;;;33.24;68.52
76358;BME280;65185;21.060;105.826;2023-09-07T09:22:08;100314.13;;;33.23;69.35
76358;BME280;65185;21.060;105.826;2023-09-07T09:24:36;100306.44;;;33.28;69.03
76358;BME280;65185;21.060;105.826;2023-09-07T09:27:03;100314.00;;;33.33;68.01
76358;BME280;65185;21.060;105.826;2023-09-07T09:29:32;100302.63;;;33.39;66.11
76358;BME280;65185;21.060;105.826;2023-09-07T09:32:02;100306.16;;;33.40;66.31
76358;BME280;65185;21.060;105.826;2023-09-07T09:34:37;100307.66;;;33.42;66.80
76358;BME280;65185;21.060;105.826;2023-09-07T09:37:04;100303.13;;;33.43;68.08
76358;BME280;65185;21.060;105.826;2023-09-07T09:39:39;100301.41;;;33.34;67.51
76358;BME280;65185;21.060;105.826;2023-09-07T09:42:06;100303.25;;;33.33;67.43
76358;BME280;65185;21.060;105.826;2023-09-07T09:44:32;100296.50;;;33.29;66.73
76358;BME280;65185;21.060;105.826;2023-09-07T09:47:00;100296.84;;;33.26;68.04
76358;BME280;65185;21.060;105.826;2023-09-07T09:49:26;100299.53;;;33.26;69.05
76358;BME280;65185;21.060;105.826;2023-09-07T09:51:54;100296.13;;;33.16;69.52
76358;BME280;65185;21.060;105.826;2023-09-07T09:54:23;100291.72;;;33.07;68.79
76358;BME280;65185;21.060;105.826;2023-09-07T09:56:51;100285.16;;;33.01;69.36
76358;BME280;65185;21.060;105.826;2023-09-07T09:59:17;100288.19;;;32.98;68.43
76358;BME280;65185;21.060;105.826;2023-09-07T10:01:47;100284.44;;;32.91;68.10
76358;BME280;65185;21.060;105.826;2023-09-07T10:04:17;100290.94;;;32.89;68.73
76358;BME280;65185;21.060;105.826;2023-09-07T10:06:59;100290.09;;;32.88;69.29
76358;BME280;65185;21.060;105.826;2023-09-07T10:09:34;100291.75;;;32.81;70.10
76358;BME280;65185;21.060;105.826;2023-09-07T10:12:02;100299.09;;;32.79;70.33
76358;BME280;65185;21.060;105.826;2023-09-07T10:14:40;100310.34;;;32.75;71.39
76358;BME280;65185;21.060;105.826;2023-09-07T10:17:07;100305.25;;;32.72;71.59
76358;BME280;65185;21.060;105.826;2023-09-07T10:19:35;100308.09;;;32.70;70.92
76358;BME280;65185;21.060;105.826;2023-09-07T10:22:04;100314.84;;;32.74;70.10
76358;BME280;65185;21.060;105.826;2023-09-07T10:24:32;100316.00;;;32.72;69.91
76358;BME280;65185;21.060;105.826;2023-09-07T10:27:08;100318.84;;;32.70;70.53
76358;BME280;65185;21.060;105.826;2023-09-07T10:29:46;100333.28;;;32.69;71.20
76358;BME280;65185;21.060;105.826;2023-09-07T10:32:13;100339.50;;;32.70;70.86
76358;BME280;65185;21.060;105.826;2023-09-07T10:34:42;100332.91;;;32.64;71.18
76358;BME280;65185;21.060;105.826;2023-09-07T10:37:12;100337.44;;;32.64;71.81
76358;BME280;65185;21.060;105.826;2023-09-07T10:39:40;100343.94;;;32.61;71.96
76358;BME280;65185;21.060;105.826;2023-09-07T10:42:19;100341.88;;;32.55;72.73
76358;BME280;65185;21.060;105.826;2023-09-07T10:44:46;100344.69;;;32.46;73.61
76358;BME280;65185;21.060;105.826;2023-09-07T10:47:12;100344.41;;;32.39;74.18
76358;BME280;65185;21.060;105.826;2023-09-07T10:49:39;100352.59;;;32.38;73.09
76358;BME280;65185;21.060;105.826;2023-09-07T10:52:05;100354.41;;;32.29;73.01
76358;BME280;65185;21.060;105.826;2023-09-07T10:54:32;100357.16;;;32.19;73.42
76358;BME280;65185;21.060;105.826;2023-09-07T10:57:08;100358.28;;;32.17;73.61
76358;BME280;65185;21.060;105.826;2023-09-07T10:59:35;100354.78;;;32.16;73.27
76358;BME280;65185;21.060;105.826;2023-09-07T11:02:07;100352.47;;;32.21;73.29
76358;BME280;65185;21.060;105.826;2023-09-07T11:04:33;100366.56;;;32.23;73.47
76358;BME280;65185;21.060;105.826;2023-09-07T11:07:00;100358.38;;;32.25;73.07
76358;BME280;65185;21.060;105.826;2023-09-07T11:09:30;100361.09;;;32.33;73.39
76358;BME280;65185;21.060;105.826;2023-09-07T11:11:57;100363.66;;;32.34;72.89
76358;BME280;65185;21.060;105.826;2023-09-07T11:14:30;100363.13;;;32.31;72.74
76358;BME280;65185;21.060;105.826;2023-09-07T11:16:57;100362.97;;;32.32;72.68
76358;BME280;65185;21.060;105.826;2023-09-07T11:19:23;100365.50;;;32.34;72.81
76358;BME280;65185;21.060;105.826;2023-09-07T11:21:52;100368.16;;;32.34;72.83
76358;BME280;65185;21.060;105.826;2023-09-07T11:24:19;100370.84;;;32.34;73.20
76358;BME280;65185;21.060;105.826;2023-09-07T11:26:47;100386.34;;;32.40;73.60
76358;BME280;65185;21.060;105.826;2023-09-07T11:29:14;100378.84;;;32.44;73.05
76358;BME280;65185;21.060;105.826;2023-09-07T11:31:41;100388.72;;;32.43;72.54
76358;BME280;65185;21.060;105.826;2023-09-07T11:34:12;100392.47;;;32.50;72.02
76358;BME280;65185;21.060;105.826;2023-09-07T11:36:42;100399.66;;;32.50;72.84
76358;BME280;65185;21.060;105.826;2023-09-07T11:39:09;100400.06;;;32.55;72.64
76358;BME280;65185;21.060;105.826;2023-09-07T11:41:43;100398.53;;;32.52;72.90
76358;BME280;65185;21.060;105.826;2023-09-07T11:44:10;100413.78;;;32.52;72.51
76358;BME280;65185;21.060;105.826;2023-09-07T11:46:37;100436.63;;;32.56;75.42
76358;BME280;65185;21.060;105.826;2023-09-07T11:49:04;100441.78;;;32.49;76.31
76358;BME280;65185;21.060;105.826;2023-09-07T11:51:34;100461.72;;;32.37;77.16
76358;BME280;65185;21.060;105.826;2023-09-07T11:54:04;100468.16;;;32.26;78.33
76358;BME280;65185;21.060;105.826;2023-09-07T11:56:30;100476.81;;;32.20;79.72
76358;BME280;65185;21.060;105.826;2023-09-07T11:58:57;100489.97;;;32.14;81.35
76358;BME280;65185;21.060;105.826;2023-09-07T12:01:24;100494.41;;;32.05;82.81
76358;BME280;65185;21.060;105.826;2023-09-07T12:03:52;100500.53;;;31.98;81.36
76358;BME280;65185;21.060;105.826;2023-09-07T12:06:18;100501.25;;;31.90;81.48
76358;BME280;65185;21.060;105.826;2023-09-07T12:08:59;100515.38;;;31.83;80.49
76358;BME280;65185;21.060;105.826;2023-09-07T12:11:29;100523.13;;;31.76;80.31
76358;BME280;65185;21.060;105.826;2023-09-07T12:13:56;100526.28;;;31.72;79.55
76358;BME280;65185;21.060;105.826;2023-09-07T12:16:24;100535.59;;;31.68;79.71
76358;BME280;65185;21.060;105.826;2023-09-07T12:18:51;100537.41;;;31.67;80.86
76358;BME280;65185;21.060;105.826;2023-09-07T12:21:17;100541.38;;;31.63;80.88
76358;BME280;65185;21.060;105.826;2023-09-07T12:23:44;100554.09;;;31.61;81.67
76358;BME280;65185;21.060;105.826;2023-09-07T12:26:11;100552.53;;;31.59;80.84
76358;BME280;65185;21.060;105.826;2023-09-07T12:28:37;100562.84;;;31.54;81.50
76358;BME280;65185;21.060;105.826;2023-09-07T12:31:04;100569.47;;;31.50;79.81
76358;BME280;65185;21.060;105.826;2023-09-07T12:33:30;100569.19;;;31.43;80.06